Portada
METAR-TAF:

METAR-TAF

Aeropuertos :

Aeropuerto Cherif Al Idrissi

Alhucemas, Marruecos

latitud: 35-11N, longitud: 003-51W, altitud: 27 m

Observación

El informe se hizo hace 21 minutos, a las 07:00 UTC
Viento 2 kt con dirección variable
Temperatura 22°C
Humedad 78%
Presión 1014 hPa
Visibilidad 10 km o más
sin nubes por debajo de 1500 m y sin presencia de cumulonimbus.

METAR: GMTA 140700Z VRB02KT CAVOK 22/18 Q1014 NOSIG

Hora: 08:21 (07:21 UTC)

Pronóstico

El informe se hizo hace 2 horas y 21 minutos, a las 05:00 UTC
Pronóstico válido del 14 a las 06 UTC al 15 a las 12 UTC
Viento 7 kt del sur-suroeste
Visibilidad 10 km o más
Escasas nubes a una altura de 2600 ft

TAF: GMTA 140500Z 1406/1512 21007KT 9999 FEW026

Observaciones y pronósticos meteorológicos de más de 4000 aeropuertos (mensajes METAR y TAF).

Los puntos amarillos y rojos representan las estaciones disponibles.

Ponga el ratón en el punto deseado para ver el nombre de la estación.

Haga clic para ver las observaciones y los pronósticos meteorológicos.

Para cambiar el mapa : haga clic en los botones verdes con una cruz de color negro para hacer un zoom, en el botón verde con un guión para alejar o en las flechas verdes para mapas adyacentes.


METAR-TAF: